createdAt,value
2022-10-18T00:02:12.291Z,100731.97
2022-10-18T00:04:40.215Z,100741.41
2022-10-18T00:07:07.231Z,100728.88
2022-10-18T00:09:34.925Z,100736.16
2022-10-18T00:12:01.540Z,100739.16
2022-10-18T00:14:28.146Z,100742.06
2022-10-18T00:16:54.569Z,100741.19
2022-10-18T00:19:22.196Z,100739.34
2022-10-18T00:21:51.331Z,100738.34
2022-10-18T00:24:17.802Z,100742.72
2022-10-18T00:26:44.695Z,100735.63
2022-10-18T00:29:14.173Z,100735.09
2022-10-18T00:31:41.267Z,100745.91
2022-10-18T00:34:15.155Z,100747.06
2022-10-18T00:36:42.510Z,100732.53
2022-10-18T00:39:10.906Z,100729.69
2022-10-18T00:41:38.236Z,100732.22
2022-10-18T00:44:27.075Z,100734.59
2022-10-18T00:46:56.976Z,100732.28
2022-10-18T00:49:27.495Z,100732.28
2022-10-18T00:51:59.407Z,100727.19
2022-10-18T00:54:26.946Z,100725.72
2022-10-18T00:56:53.869Z,100731.44
2022-10-18T00:59:20.598Z,100726.03
2022-10-18T01:01:47.345Z,100721.63
2022-10-18T01:04:15.080Z,100718.06
2022-10-18T01:07:02.279Z,100720.22
2022-10-18T01:09:52.259Z,100718.88
2022-10-18T01:12:28.695Z,100733.22
2022-10-18T01:15:19.223Z,100730.88
2022-10-18T01:18:08.543Z,100731.03
2022-10-18T01:21:09.628Z,100729.00
2022-10-18T01:24:09.013Z,100733.47
2022-10-18T01:27:12.437Z,100727.50
2022-10-18T01:30:24.435Z,100726.50
2022-10-18T01:32:53.679Z,100723.25
2022-10-18T01:35:24.390Z,100732.41
2022-10-18T01:37:52.089Z,100721.19
2022-10-18T01:40:20.812Z,100717.94
2022-10-18T01:42:48.655Z,100722.88
2022-10-18T01:45:15.863Z,100728.84
2022-10-18T01:47:44.681Z,100741.13
2022-10-18T01:50:11.861Z,100743.41
2022-10-18T01:52:51.011Z,100733.75
2022-10-18T01:55:18.468Z,100746.28
2022-10-18T01:57:59.778Z,100737.72
2022-10-18T02:00:36.530Z,100736.47
2022-10-18T02:03:21.503Z,100738.78
2022-10-18T02:06:08.446Z,100737.56
2022-10-18T02:08:48.519Z,100743.66
2022-10-18T02:11:16.130Z,100736.41
2022-10-18T02:14:00.396Z,100739.56
2022-10-18T02:16:34.636Z,100725.25
2022-10-18T02:19:06.094Z,100730.06
2022-10-18T02:21:33.473Z,100734.22
2022-10-18T02:24:00.773Z,100732.00
2022-10-18T02:26:27.291Z,100734.16
2022-10-18T02:28:53.847Z,100743.97
2022-10-18T02:31:29.245Z,100740.00
2022-10-18T02:34:00.866Z,100738.75
2022-10-18T02:36:42.657Z,100738.75
2022-10-18T02:39:14.818Z,100736.59
2022-10-18T02:41:41.581Z,100743.88
2022-10-18T02:44:08.041Z,100737.47
2022-10-18T02:46:34.549Z,100726.19
2022-10-18T02:49:00.917Z,100736.16
2022-10-18T02:51:27.378Z,100734.31
2022-10-18T02:53:53.803Z,100738.72
2022-10-18T02:56:20.237Z,100733.59
2022-10-18T02:58:46.636Z,100727.94
2022-10-18T03:01:13.143Z,100738.50
2022-10-18T03:03:39.595Z,100743.91
2022-10-18T03:06:06.284Z,100737.97
2022-10-18T03:08:32.717Z,100745.38
2022-10-18T03:10:59.134Z,100747.22
2022-10-18T03:13:25.685Z,100747.34
2022-10-18T03:15:52.154Z,100750.19
2022-10-18T03:18:18.604Z,100752.06
2022-10-18T03:20:45.086Z,100753.06
2022-10-18T03:23:11.685Z,100745.66
2022-10-18T03:25:40.536Z,100740.56
2022-10-18T03:28:09.314Z,100746.09
2022-10-18T03:30:35.698Z,100757.91
2022-10-18T03:33:02.089Z,100752.78
2022-10-18T03:35:28.451Z,100750.56
2022-10-18T03:37:54.923Z,100756.13
2022-10-18T03:40:21.631Z,100750.09
2022-10-18T03:42:48.087Z,100737.16
2022-10-18T03:45:15.500Z,100741.56
2022-10-18T03:47:41.883Z,100739.25
2022-10-18T03:50:08.894Z,100749.00
2022-10-18T03:52:37.557Z,100742.56
2022-10-18T03:55:04.285Z,100734.91
2022-10-18T03:57:30.753Z,100736.31
2022-10-18T03:59:57.110Z,100733.72
2022-10-18T04:02:23.507Z,100741.50
2022-10-18T04:04:50.013Z,100735.47
2022-10-18T04:07:16.710Z,100738.25
2022-10-18T04:09:43.106Z,100729.00
2022-10-18T04:12:10.782Z,100730.53
2022-10-18T04:14:37.153Z,100734.59
2022-10-18T04:17:04.757Z,100739.78
2022-10-18T04:19:31.202Z,100737.81
2022-10-18T04:21:57.631Z,100734.50
2022-10-18T04:24:24.175Z,100739.44
2022-10-18T04:26:50.586Z,100734.03
2022-10-18T04:29:17.047Z,100739.81
2022-10-18T04:31:43.749Z,100745.69
2022-10-18T04:34:10.953Z,100741.34
2022-10-18T04:36:37.415Z,100736.81
2022-10-18T04:39:04.007Z,100740.28
2022-10-18T04:41:30.435Z,100749.16
2022-10-18T04:43:57.153Z,100753.03
2022-10-18T04:46:23.600Z,100762.19
2022-10-18T04:48:51.139Z,100766.44
2022-10-18T04:51:17.739Z,100758.81
2022-10-18T04:53:44.092Z,100757.63
2022-10-18T04:56:10.751Z,100773.41
2022-10-18T04:58:45.069Z,100770.31
2022-10-18T05:01:11.549Z,100767.72
2022-10-18T05:03:38.066Z,100775.38
2022-10-18T05:06:05.427Z,100771.88
2022-10-18T05:08:33.504Z,100762.84
2022-10-18T05:11:00.082Z,100763.31
2022-10-18T05:13:28.274Z,100755.91
2022-10-18T05:15:54.765Z,100760.72
2022-10-18T05:18:21.263Z,100758.59
2022-10-18T05:20:47.697Z,100759.44
2022-10-18T05:23:14.219Z,100758.81
2022-10-18T05:25:42.057Z,100749.00
2022-10-18T05:28:34.454Z,100749.34
2022-10-18T05:31:00.916Z,100753.66
2022-10-18T05:33:27.326Z,100755.88
2022-10-18T05:35:53.703Z,100764.16
2022-10-18T05:38:20.663Z,100760.44
2022-10-18T05:40:47.093Z,100758.47
2022-10-18T05:43:13.545Z,100763.88
2022-10-18T05:45:40.066Z,100756.41
2022-10-18T05:48:07.802Z,100760.03
2022-10-18T05:50:36.748Z,100757.09
2022-10-18T05:53:12.549Z,100747.50
2022-10-18T05:55:51.069Z,100742.41
2022-10-18T05:58:17.441Z,100734.13
2022-10-18T06:00:43.826Z,100728.50
2022-10-18T06:03:10.246Z,100718.34
2022-10-18T06:05:36.688Z,100701.25
2022-10-18T06:08:05.333Z,100708.56
2022-10-18T06:10:39.086Z,100714.81
2022-10-18T06:13:05.450Z,100725.94
2022-10-18T06:15:31.957Z,100727.25
2022-10-18T06:17:59.042Z,100739.69
2022-10-18T06:20:25.569Z,100733.69
2022-10-18T06:22:53.444Z,100740.81
2022-10-18T06:25:19.876Z,100737.91
2022-10-18T06:27:46.364Z,100741.69
2022-10-18T06:30:12.752Z,100757.63
2022-10-18T06:32:40.134Z,100751.00
2022-10-18T06:35:06.908Z,100745.75
2022-10-18T06:37:35.413Z,100744.13
2022-10-18T06:40:02.245Z,100762.09
2022-10-18T06:42:28.750Z,100770.41
2022-10-18T06:44:55.088Z,100770.28
2022-10-18T06:47:21.467Z,100770.28
2022-10-18T06:49:47.943Z,100776.53
2022-10-18T06:52:17.304Z,100790.50
2022-10-18T06:54:45.421Z,100780.97
2022-10-18T06:57:12.118Z,100781.31
2022-10-18T06:59:38.719Z,100776.97
2022-10-18T07:02:05.125Z,100778.84
2022-10-18T07:04:31.602Z,100781.41
2022-10-18T07:06:58.101Z,100770.69
2022-10-18T07:09:24.517Z,100768.13
2022-10-18T07:11:52.748Z,100762.03
2022-10-18T07:14:19.142Z,100774.75
2022-10-18T07:16:45.576Z,100766.63
2022-10-18T07:19:12.214Z,100778.00
2022-10-18T07:21:38.619Z,100778.19
2022-10-18T07:24:05.281Z,100782.41
2022-10-18T07:26:33.238Z,100796.97
2022-10-18T07:29:08.704Z,100800.72
2022-10-18T07:31:35.489Z,100798.66
2022-10-18T07:34:04.369Z,100788.69
2022-10-18T07:36:33.315Z,100779.69
2022-10-18T07:38:59.800Z,100778.00
2022-10-18T07:41:26.606Z,100773.72
2022-10-18T07:43:53.626Z,100783.41
2022-10-18T07:46:21.539Z,100794.13
2022-10-18T07:48:48.078Z,100790.00
2022-10-18T07:51:14.962Z,100781.34
2022-10-18T07:53:42.545Z,100779.50
2022-10-18T07:56:15.789Z,100788.47
2022-10-18T07:58:43.367Z,100790.97
2022-10-18T08:01:10.307Z,100790.91
2022-10-18T08:03:37.633Z,100779.81
2022-10-18T08:06:05.787Z,100763.22
2022-10-18T08:08:32.692Z,100763.22
2022-10-18T08:11:07.756Z,100777.31
2022-10-18T08:13:34.295Z,100785.94
2022-10-18T08:16:02.255Z,100783.06
2022-10-18T08:18:29.073Z,100776.59
2022-10-18T08:20:55.471Z,100772.56
2022-10-18T08:23:21.971Z,100743.91
2022-10-18T08:25:49.519Z,100747.78
2022-10-18T08:28:17.501Z,100738.44
2022-10-18T08:30:46.154Z,100745.06
2022-10-18T08:33:12.527Z,100731.78
2022-10-18T08:35:39.321Z,100735.50
2022-10-18T08:38:05.981Z,100727.03
2022-10-18T08:44:12.132Z,100717.91
2022-10-18T08:46:42.567Z,100715.50
2022-10-18T08:49:16.215Z,100712.44
2022-10-18T08:51:45.826Z,100715.41
2022-10-18T08:54:13.963Z,100724.47
2022-10-18T08:56:43.707Z,100719.63
2022-10-18T08:59:11.547Z,100716.78
2022-10-18T09:01:59.455Z,100717.13
2022-10-18T09:04:47.355Z,100724.09
2022-10-18T09:07:21.468Z,100721.72
2022-10-18T09:10:16.759Z,100713.59
2022-10-18T09:13:21.370Z,100698.97
2022-10-18T09:16:05.061Z,100704.22
2022-10-18T09:18:57.568Z,100717.44
2022-10-18T09:21:29.813Z,100724.47
2022-10-18T09:24:05.664Z,100706.88
2022-10-18T09:26:42.220Z,100705.94
2022-10-18T09:29:42.808Z,100695.72
2022-10-18T09:35:57.122Z,100683.19
2022-10-18T09:38:27.881Z,100684.78
2022-10-18T09:41:02.085Z,100679.59
2022-10-18T09:43:43.441Z,100679.63
2022-10-18T09:46:10.064Z,100672.03
2022-10-18T09:48:50.280Z,100677.00
2022-10-18T09:51:22.246Z,100676.94
2022-10-18T09:54:14.059Z,100668.66
2022-10-18T09:57:00.783Z,100669.97
2022-10-18T09:59:34.378Z,100669.69
2022-10-18T10:02:00.927Z,100659.81
2022-10-18T10:04:27.854Z,100654.38
2022-10-18T10:06:57.034Z,100653.13
2022-10-18T10:09:48.306Z,100649.41
2022-10-18T10:12:34.411Z,100648.06
2022-10-18T10:15:23.566Z,100654.22
2022-10-18T10:17:58.365Z,100656.59
2022-10-18T10:20:30.889Z,100653.59
2022-10-18T10:23:06.221Z,100673.50
2022-10-18T10:25:35.102Z,100685.50
2022-10-18T10:28:11.270Z,100716.13
2022-10-18T10:30:38.510Z,100714.75
2022-10-18T10:33:06.120Z,100703.25
2022-10-18T10:35:54.311Z,100698.66
2022-10-18T10:38:25.594Z,100713.81
2022-10-18T10:40:52.570Z,100728.69
2022-10-18T10:43:39.234Z,100736.38
2022-10-18T10:46:10.813Z,100710.69
2022-10-18T10:49:38.646Z,100751.28
2022-10-18T10:52:08.791Z,100738.06
2022-10-18T10:54:47.558Z,100725.69
2022-10-18T10:57:28.586Z,100725.44
2022-10-18T10:59:59.564Z,100694.38
2022-10-18T11:02:29.049Z,100678.13
2022-10-18T11:04:56.812Z,100673.72
2022-10-18T11:07:27.618Z,100668.28
2022-10-18T11:10:13.478Z,100655.09
2022-10-18T11:12:43.469Z,100646.97
2022-10-18T11:15:10.108Z,100660.72
2022-10-18T11:17:39.870Z,100669.69
2022-10-18T11:20:19.653Z,100676.16
2022-10-18T11:23:03.058Z,100680.50
2022-10-18T11:25:52.700Z,100671.00
2022-10-18T11:28:26.697Z,100669.31
2022-10-18T11:31:05.247Z,100697.13
2022-10-18T11:34:10.166Z,100697.13
2022-10-18T11:36:56.849Z,100680.84
2022-10-18T11:39:44.601Z,100694.94
2022-10-18T11:42:21.218Z,100690.50
2022-10-18T11:44:57.529Z,100685.38
2022-10-18T11:47:46.280Z,100691.81
2022-10-18T11:50:26.069Z,100688.84
2022-10-18T11:53:07.251Z,100690.16
2022-10-18T11:56:04.928Z,100709.31
2022-10-18T11:58:50.034Z,100712.03
2022-10-18T12:01:28.762Z,100706.41
2022-10-18T12:04:20.665Z,100708.28
2022-10-18T12:06:49.427Z,100712.81
2022-10-18T12:09:29.288Z,100712.63
2022-10-18T12:12:00.528Z,100726.09
2022-10-18T12:14:34.368Z,100724.09
2022-10-18T12:17:39.855Z,100716.44
2022-10-18T12:19:53.288Z,100712.41
2022-10-18T12:22:29.008Z,100706.94
2022-10-18T12:24:55.578Z,100714.75
2022-10-18T12:27:30.719Z,100712.69
2022-10-18T12:30:03.502Z,100709.59
2022-10-18T12:32:32.853Z,100716.25
2022-10-18T12:35:14.858Z,100718.91
2022-10-18T12:37:59.905Z,100717.66
2022-10-18T12:40:38.401Z,100729.94
2022-10-18T12:43:18.535Z,100719.22
2022-10-18T12:45:54.840Z,100705.84
2022-10-18T12:48:51.241Z,100703.94
2022-10-18T12:51:19.938Z,100699.50
2022-10-18T12:53:49.246Z,100706.09
2022-10-18T12:56:27.801Z,100716.47
2022-10-18T12:59:16.946Z,100716.63
2022-10-18T13:01:55.524Z,100724.75
2022-10-18T13:04:28.139Z,100724.25
2022-10-18T13:06:57.583Z,100722.75
2022-10-18T13:09:26.316Z,100708.31
2022-10-18T13:12:02.092Z,100718.84
2022-10-18T13:15:05.964Z,100721.72
2022-10-18T13:17:55.134Z,100718.31
2022-10-18T13:20:48.146Z,100724.88
2022-10-18T13:23:38.061Z,100724.41
2022-10-18T13:26:32.022Z,100732.19
2022-10-18T13:29:14.074Z,100732.03
2022-10-18T13:31:58.377Z,100729.19
2022-10-18T13:34:29.075Z,100733.59
2022-10-18T13:37:17.678Z,100737.84
2022-10-18T13:39:44.475Z,100735.66
2022-10-18T13:42:14.080Z,100736.84
2022-10-18T13:44:41.985Z,100740.25
2022-10-18T13:47:11.469Z,100728.88
2022-10-18T13:50:26.494Z,100725.13
2022-10-18T13:52:59.145Z,100717.66
2022-10-18T13:55:51.999Z,100716.63
2022-10-18T13:58:28.973Z,100712.91
2022-10-18T14:01:40.390Z,100714.25
2022-10-18T14:04:21.354Z,100714.25
2022-10-18T14:06:48.483Z,100714.25
2022-10-18T14:09:25.977Z,100709.47
2022-10-18T14:12:30.853Z,100702.19
2022-10-18T14:15:05.476Z,100706.25
2022-10-18T14:17:42.305Z,100705.34
2022-10-18T14:21:01.490Z,100708.53
2022-10-18T14:23:44.739Z,100716.31
2022-10-18T14:26:15.498Z,100720.88
2022-10-18T14:28:59.044Z,100732.72
2022-10-18T14:31:27.228Z,100736.66
2022-10-18T14:33:57.922Z,100741.41
2022-10-18T14:36:37.999Z,100735.28
2022-10-18T14:39:05.875Z,100736.72
2022-10-18T14:41:40.259Z,100744.78
2022-10-18T14:44:16.129Z,100747.91
2022-10-18T14:46:47.500Z,100740.44
2022-10-18T14:49:15.625Z,100752.69
2022-10-18T14:51:44.161Z,100756.72
2022-10-18T14:54:16.684Z,100755.78
2022-10-18T14:56:43.695Z,100758.69
2022-10-18T14:59:16.790Z,100743.91
2022-10-18T15:01:55.977Z,100749.91
2022-10-18T15:04:27.706Z,100745.84
2022-10-18T15:06:55.332Z,100740.56
2022-10-18T15:09:23.275Z,100737.38
2022-10-18T15:11:51.074Z,100742.81
2022-10-18T15:14:19.028Z,100735.16
2022-10-18T15:16:46.699Z,100740.59
2022-10-18T15:19:16.243Z,100736.50
2022-10-18T15:22:31.674Z,100733.13
2022-10-18T15:25:05.898Z,100733.13
2022-10-18T15:27:36.218Z,100740.59
2022-10-18T15:30:20.331Z,100736.84
2022-10-18T15:32:52.431Z,100734.13
2022-10-18T15:35:26.073Z,100745.34
2022-10-18T15:38:14.835Z,100757.72
2022-10-18T15:40:42.294Z,100752.28
2022-10-18T15:43:24.090Z,100761.13
2022-10-18T15:45:52.664Z,100758.81
2022-10-18T15:48:23.658Z,100760.97
2022-10-18T15:50:55.519Z,100757.25
2022-10-18T15:53:25.525Z,100770.53
2022-10-18T15:55:55.341Z,100767.47
2022-10-18T15:58:35.329Z,100765.28
2022-10-18T16:01:02.798Z,100768.16
2022-10-18T16:03:33.055Z,100771.88
2022-10-18T16:06:04.654Z,100770.16
2022-10-18T16:08:32.408Z,100772.22
2022-10-18T16:10:59.373Z,100783.72
2022-10-18T16:13:29.012Z,100779.28
2022-10-18T16:15:59.607Z,100777.94
2022-10-18T16:18:27.040Z,100786.75
2022-10-18T16:20:57.498Z,100783.13
2022-10-18T16:23:28.256Z,100784.00
2022-10-18T16:25:54.974Z,100776.84
2022-10-18T16:28:24.158Z,100777.84
2022-10-18T16:31:03.491Z,100779.38
2022-10-18T16:33:31.060Z,100782.41
2022-10-18T16:35:57.774Z,100786.81
2022-10-18T16:38:32.767Z,100785.81
2022-10-18T16:41:04.669Z,100777.47
2022-10-18T16:43:31.835Z,100782.75
2022-10-18T16:45:58.284Z,100788.00
2022-10-18T16:48:25.300Z,100788.38
2022-10-18T16:50:54.625Z,100786.50
2022-10-18T16:53:24.010Z,100785.47
2022-10-18T16:56:01.029Z,100793.09
2022-10-18T16:58:28.603Z,100783.94
2022-10-18T17:00:55.262Z,100784.81
2022-10-18T17:03:21.797Z,100785.66
2022-10-18T17:05:48.364Z,100782.94
2022-10-18T17:08:25.646Z,100780.72
2022-10-18T17:10:54.603Z,100778.13
2022-10-18T17:13:22.786Z,100783.19
2022-10-18T17:15:50.084Z,100791.16
2022-10-18T17:18:20.334Z,100790.81
2022-10-18T17:20:46.752Z,100789.22
2022-10-18T17:23:13.368Z,100796.34
2022-10-18T17:25:52.686Z,100806.78
2022-10-18T17:28:30.971Z,100808.06
2022-10-18T17:30:57.615Z,100798.38
2022-10-18T17:33:26.299Z,100801.59
2022-10-18T17:35:52.900Z,100809.19
2022-10-18T17:38:19.468Z,100803.94
2022-10-18T17:40:48.825Z,100792.78
2022-10-18T17:43:16.233Z,100788.91
2022-10-18T17:45:48.779Z,100798.34
2022-10-18T17:48:18.471Z,100790.53
2022-10-18T17:50:46.434Z,100799.63
2022-10-18T17:53:13.267Z,100802.53
2022-10-18T17:55:40.128Z,100810.13
2022-10-18T17:58:06.771Z,100802.16
2022-10-18T18:00:33.407Z,100805.50
2022-10-18T18:03:00.677Z,100804.50
2022-10-18T18:05:30.992Z,100791.66
2022-10-18T18:08:02.751Z,100800.84
2022-10-18T18:10:33.226Z,100808.50
2022-10-18T18:13:00.228Z,100795.34
2022-10-18T18:15:27.911Z,100801.25
2022-10-18T18:17:58.237Z,100793.34
2022-10-18T18:20:26.011Z,100794.72
2022-10-18T18:22:52.673Z,100796.59
2022-10-18T18:25:23.626Z,100798.13
2022-10-18T18:27:52.478Z,100798.34
2022-10-18T18:30:22.036Z,100791.03
2022-10-18T18:32:49.210Z,100796.44
2022-10-18T18:35:15.761Z,100795.13
2022-10-18T18:37:42.463Z,100800.53
2022-10-18T18:40:10.639Z,100802.72
2022-10-18T18:42:41.454Z,100800.69
2022-10-18T18:45:11.030Z,100804.41
2022-10-18T18:47:38.573Z,100806.97
2022-10-18T18:50:07.119Z,100801.78
2022-10-18T18:52:35.986Z,100806.50
2022-10-18T18:55:02.874Z,100809.91
2022-10-18T18:57:30.189Z,100802.78
2022-10-18T18:59:56.796Z,100796.50
2022-10-18T19:02:24.452Z,100799.06
2022-10-18T19:04:53.757Z,100793.94
2022-10-18T19:07:20.254Z,100801.78
2022-10-18T19:09:48.436Z,100800.06
2022-10-18T19:12:19.079Z,100808.34
2022-10-18T19:14:47.347Z,100808.69
2022-10-18T19:17:13.816Z,100811.69
2022-10-18T19:19:43.504Z,100808.75
2022-10-18T19:22:12.215Z,100810.38
2022-10-18T19:24:39.816Z,100813.78
2022-10-18T19:27:12.830Z,100806.03
2022-10-18T19:29:40.523Z,100814.97
2022-10-18T19:32:12.240Z,100809.72
2022-10-18T19:34:39.900Z,100808.69
2022-10-18T19:37:06.916Z,100813.78
2022-10-18T19:39:35.175Z,100809.75
2022-10-18T19:42:09.325Z,100810.59
2022-10-18T19:44:44.120Z,100813.75
2022-10-18T19:47:12.419Z,100820.66
2022-10-18T19:49:39.331Z,100823.25
2022-10-18T19:52:08.217Z,100819.59
2022-10-18T19:54:34.860Z,100815.78
2022-10-18T19:57:02.578Z,100820.16
2022-10-18T19:59:29.277Z,100820.63
2022-10-18T20:01:56.090Z,100825.59
2022-10-18T20:04:23.072Z,100821.31
2022-10-18T20:06:50.070Z,100827.34
2022-10-18T20:09:21.559Z,100825.56
2022-10-18T20:11:48.195Z,100825.50
2022-10-18T20:14:14.673Z,100823.25
2022-10-18T20:16:41.618Z,100823.09
2022-10-18T20:19:08.545Z,100831.50
2022-10-18T20:21:42.660Z,100824.47
2022-10-18T20:24:10.886Z,100830.22
2022-10-18T20:26:39.536Z,100823.34
2022-10-18T20:29:07.838Z,100817.53
2022-10-18T20:31:37.119Z,100814.41
2022-10-18T20:34:06.288Z,100820.75
2022-10-18T20:36:33.213Z,100831.53
2022-10-18T20:39:00.017Z,100827.88
2022-10-18T20:41:27.431Z,100826.78
2022-10-18T20:43:59.107Z,100841.84
2022-10-18T20:46:27.124Z,100827.66
2022-10-18T20:48:54.392Z,100827.34
2022-10-18T20:51:26.394Z,100828.34
2022-10-18T20:53:53.617Z,100831.06
2022-10-18T20:56:25.159Z,100832.75
2022-10-18T20:58:53.373Z,100826.34
2022-10-18T21:01:21.160Z,100828.06
2022-10-18T21:03:49.818Z,100829.34
2022-10-18T21:06:28.042Z,100823.81
2022-10-18T21:09:03.640Z,100835.03
2022-10-18T21:11:31.691Z,100829.50
2022-10-18T21:14:02.016Z,100828.66
2022-10-18T21:16:29.584Z,100825.66
2022-10-18T21:18:56.036Z,100832.31
2022-10-18T21:21:24.669Z,100827.34
2022-10-18T21:23:51.895Z,100815.38
2022-10-18T21:26:21.239Z,100826.19
2022-10-18T21:28:50.260Z,100825.50
2022-10-18T21:31:20.340Z,100820.88
2022-10-18T21:33:47.272Z,100827.41
2022-10-18T21:36:14.592Z,100823.13
2022-10-18T21:38:44.138Z,100820.53
2022-10-18T21:41:12.151Z,100819.22
2022-10-18T21:43:45.549Z,100821.22
2022-10-18T21:46:12.867Z,100818.94
2022-10-18T21:48:44.328Z,100823.19
2022-10-18T21:51:14.328Z,100822.81
2022-10-18T21:53:45.822Z,100831.03
2022-10-18T21:56:20.956Z,100826.00
2022-10-18T21:58:47.904Z,100822.53
2022-10-18T22:01:25.867Z,100827.50
2022-10-18T22:03:54.119Z,100826.88
2022-10-18T22:06:23.841Z,100821.47
2022-10-18T22:08:53.135Z,100822.00
2022-10-18T22:11:23.100Z,100818.38
2022-10-18T22:13:49.632Z,100815.72
2022-10-18T22:16:16.892Z,100807.41
2022-10-18T22:18:45.053Z,100806.31
2022-10-18T22:21:13.307Z,100805.69
2022-10-18T22:23:44.682Z,100809.09
2022-10-18T22:26:24.541Z,100803.06
2022-10-18T22:28:59.265Z,100812.13
2022-10-18T22:31:30.457Z,100811.28
2022-10-18T22:33:59.705Z,100815.44
2022-10-18T22:36:27.096Z,100810.03
2022-10-18T22:38:54.048Z,100809.31
2022-10-18T22:41:20.496Z,100807.97
2022-10-18T22:43:47.758Z,100807.56
2022-10-18T22:46:15.215Z,100810.81
2022-10-18T22:48:42.347Z,100806.00
2022-10-18T22:51:09.637Z,100804.63
2022-10-18T22:53:36.983Z,100806.50
2022-10-18T22:56:04.286Z,100806.13
2022-10-18T22:58:32.551Z,100802.75
2022-10-18T23:01:07.786Z,100806.53
2022-10-18T23:03:38.092Z,100810.78
2022-10-18T23:06:05.632Z,100812.50
2022-10-18T23:08:32.356Z,100803.56
2022-10-18T23:10:59.731Z,100805.19
2022-10-18T23:13:31.095Z,100803.34
2022-10-18T23:16:04.624Z,100801.84
2022-10-18T23:18:32.246Z,100813.91
2022-10-18T23:21:03.757Z,100817.75
2022-10-18T23:23:35.231Z,100825.44
2022-10-18T23:26:10.160Z,100820.50
2022-10-18T23:28:39.257Z,100822.78
2022-10-18T23:31:11.211Z,100824.34
2022-10-18T23:33:38.352Z,100821.78
2022-10-18T23:36:07.102Z,100830.44
2022-10-18T23:38:35.409Z,100832.28
2022-10-18T23:41:02.923Z,100826.59
2022-10-18T23:43:29.464Z,100830.59
2022-10-18T23:45:55.920Z,100822.22
2022-10-18T23:48:22.599Z,100825.75
2022-10-18T23:50:49.083Z,100827.06
2022-10-18T23:53:15.779Z,100827.50
2022-10-18T23:56:00.453Z,100823.09
2022-10-18T23:58:28.139Z,100836.31
